createdAt,value
2023-01-07T00:01:42.560Z,100.00
2023-01-07T00:04:14.601Z,100.00
2023-01-07T00:06:44.369Z,100.00
2023-01-07T00:09:19.009Z,100.00
2023-01-07T00:11:46.224Z,100.00
2023-01-07T00:14:14.708Z,100.00
2023-01-07T00:16:42.639Z,100.00
2023-01-07T00:19:14.678Z,100.00
2023-01-07T00:21:42.893Z,100.00
2023-01-07T00:24:11.725Z,100.00
2023-01-07T00:26:39.840Z,100.00
2023-01-07T00:29:08.239Z,100.00
2023-01-07T00:31:38.862Z,100.00
2023-01-07T00:34:06.892Z,100.00
2023-01-07T00:36:38.808Z,100.00
2023-01-07T00:39:21.100Z,100.00
2023-01-07T00:45:39.305Z,100.00
2023-01-07T00:48:06.685Z,100.00
2023-01-07T00:50:36.374Z,100.00
2023-01-07T00:53:04.505Z,100.00
2023-01-07T00:55:32.458Z,100.00
2023-01-07T00:58:00.065Z,100.00
2023-01-07T01:00:27.653Z,100.00
2023-01-07T01:02:56.257Z,100.00
2023-01-07T01:05:23.447Z,100.00
2023-01-07T01:07:50.539Z,100.00
2023-01-07T01:10:20.673Z,100.00
2023-01-07T01:12:49.726Z,100.00
2023-01-07T01:15:17.502Z,100.00
2023-01-07T01:17:44.644Z,100.00
2023-01-07T01:20:15.236Z,100.00
2023-01-07T01:22:43.111Z,100.00
2023-01-07T01:25:11.199Z,100.00
2023-01-07T01:27:38.376Z,100.00
2023-01-07T01:30:07.832Z,100.00
2023-01-07T01:32:38.291Z,100.00
2023-01-07T01:35:06.296Z,100.00
2023-01-07T01:37:33.377Z,100.00
2023-01-07T01:40:03.934Z,100.00
2023-01-07T01:42:32.126Z,100.00
2023-01-07T01:45:02.246Z,100.00
2023-01-07T01:47:51.838Z,100.00
2023-01-07T01:50:40.676Z,100.00
2023-01-07T01:53:20.284Z,100.00
2023-01-07T01:56:00.164Z,100.00
2023-01-07T01:58:42.362Z,100.00
2023-01-07T02:01:10.605Z,100.00
2023-01-07T02:03:38.761Z,100.00
2023-01-07T02:06:09.523Z,100.00
2023-01-07T02:08:38.149Z,100.00
2023-01-07T02:11:14.645Z,100.00
2023-01-07T02:13:55.184Z,100.00
2023-01-07T02:16:40.475Z,100.00
2023-01-07T02:19:36.944Z,100.00
2023-01-07T02:22:26.401Z,100.00
2023-01-07T02:25:25.223Z,100.00
2023-01-07T02:28:45.398Z,100.00
2023-01-07T02:31:48.128Z,100.00
2023-01-07T02:34:45.739Z,100.00
2023-01-07T02:37:44.832Z,100.00
2023-01-07T02:40:23.135Z,100.00
2023-01-07T02:43:19.818Z,100.00
2023-01-07T02:46:11.749Z,100.00
2023-01-07T02:48:39.883Z,100.00
2023-01-07T02:51:06.969Z,100.00
2023-01-07T02:53:34.829Z,100.00
2023-01-07T02:56:42.928Z,100.00
2023-01-07T02:59:33.838Z,100.00
2023-01-07T03:02:28.296Z,100.00
2023-01-07T03:05:41.646Z,100.00
2023-01-07T03:08:45.537Z,100.00
2023-01-07T03:11:13.783Z,100.00
2023-01-07T03:13:40.912Z,100.00
2023-01-07T03:16:33.667Z,100.00
2023-01-07T03:19:11.719Z,100.00
2023-01-07T03:21:39.648Z,100.00
2023-01-07T03:24:08.377Z,99.59
2023-01-07T03:26:49.837Z,100.00
2023-01-07T03:29:19.576Z,100.00
2023-01-07T03:32:25.652Z,100.00
2023-01-07T03:34:53.195Z,100.00
2023-01-07T03:37:24.127Z,100.00
2023-01-07T03:39:53.044Z,100.00
2023-01-07T03:42:42.737Z,99.62
2023-01-07T03:45:25.040Z,100.00
2023-01-07T03:47:57.196Z,99.62
2023-01-07T03:50:27.425Z,100.00
2023-01-07T03:52:55.799Z,100.00
2023-01-07T03:55:24.346Z,100.00
2023-01-07T03:57:54.573Z,100.00
2023-01-07T04:00:24.818Z,100.00
2023-01-07T04:02:58.962Z,99.73
2023-01-07T04:05:33.622Z,99.69
2023-01-07T04:08:01.084Z,99.98
2023-01-07T04:10:32.643Z,100.00
2023-01-07T04:12:59.879Z,100.00
2023-01-07T04:15:27.151Z,100.00
2023-01-07T04:17:54.280Z,100.00
2023-01-07T04:20:22.515Z,99.86
2023-01-07T04:22:49.566Z,100.00
2023-01-07T04:25:16.905Z,100.00
2023-01-07T04:27:45.058Z,100.00
2023-01-07T04:30:12.845Z,100.00
2023-01-07T04:32:40.106Z,100.00
2023-01-07T04:35:07.650Z,99.83
2023-01-07T04:37:34.841Z,99.97
2023-01-07T04:40:02.241Z,99.83
2023-01-07T04:42:33.688Z,100.00
2023-01-07T04:45:01.344Z,100.00
2023-01-07T04:47:28.434Z,100.00
2023-01-07T04:49:56.365Z,100.00
2023-01-07T04:52:23.470Z,100.00
2023-01-07T04:54:50.646Z,100.00
2023-01-07T04:57:17.811Z,100.00
2023-01-07T04:59:45.946Z,100.00
2023-01-07T05:02:13.352Z,99.88
2023-01-07T05:04:40.540Z,99.58
2023-01-07T05:07:08.093Z,100.00
2023-01-07T05:09:35.276Z,100.00
2023-01-07T05:12:02.473Z,99.98
2023-01-07T05:14:30.621Z,100.00
2023-01-07T05:16:57.998Z,99.73
2023-01-07T05:19:28.000Z,99.93
2023-01-07T05:21:55.418Z,100.00
2023-01-07T05:24:22.521Z,100.00
2023-01-07T05:26:51.279Z,100.00
2023-01-07T05:29:19.592Z,100.00
2023-01-07T05:31:47.922Z,99.58
2023-01-07T05:34:15.267Z,100.00
2023-01-07T05:36:44.043Z,99.54
2023-01-07T05:39:11.668Z,100.00
2023-01-07T05:41:38.797Z,100.00
2023-01-07T05:44:06.794Z,100.00
2023-01-07T05:46:33.909Z,100.00
2023-01-07T05:49:01.073Z,100.00
2023-01-07T05:51:28.181Z,100.00
2023-01-07T05:53:55.518Z,99.94
2023-01-07T05:56:22.672Z,100.00
2023-01-07T05:58:49.793Z,100.00
2023-01-07T06:01:16.881Z,99.42
2023-01-07T06:03:44.122Z,100.00
2023-01-07T06:06:11.254Z,100.00
2023-01-07T06:08:39.449Z,100.00
2023-01-07T06:11:08.440Z,100.00
2023-01-07T06:13:36.280Z,99.93
2023-01-07T06:16:08.453Z,99.98
2023-01-07T06:18:36.877Z,99.57
2023-01-07T06:21:04.113Z,100.00
2023-01-07T06:23:31.417Z,100.00
2023-01-07T06:25:58.609Z,99.20
2023-01-07T06:28:25.790Z,99.44
2023-01-07T06:30:52.945Z,99.66
2023-01-07T06:33:20.173Z,99.03
2023-01-07T06:35:47.590Z,99.42
2023-01-07T06:38:14.765Z,99.48
2023-01-07T06:40:42.066Z,99.64
2023-01-07T06:43:09.158Z,98.87
2023-01-07T06:45:36.266Z,99.24
2023-01-07T06:48:03.966Z,100.00
2023-01-07T06:50:31.069Z,99.45
2023-01-07T06:52:58.340Z,100.00
2023-01-07T06:55:25.450Z,99.08
2023-01-07T06:57:52.549Z,98.49
2023-01-07T07:00:19.772Z,99.06
2023-01-07T07:02:46.962Z,99.02
2023-01-07T07:05:14.216Z,98.11
2023-01-07T07:07:41.331Z,99.73
2023-01-07T07:10:09.488Z,99.29
2023-01-07T07:12:38.201Z,99.39
2023-01-07T07:15:08.455Z,97.89
2023-01-07T07:17:35.709Z,98.60
2023-01-07T07:20:02.864Z,98.99
2023-01-07T07:22:30.385Z,98.77
2023-01-07T07:24:57.756Z,98.30
2023-01-07T07:27:24.770Z,99.23
2023-01-07T07:29:51.884Z,98.65
2023-01-07T07:32:19.025Z,98.16
2023-01-07T07:34:46.121Z,98.31
2023-01-07T07:37:13.264Z,98.43
2023-01-07T07:39:40.313Z,99.06
2023-01-07T07:42:07.440Z,97.75
2023-01-07T07:44:36.415Z,99.02
2023-01-07T07:47:03.711Z,98.13
2023-01-07T07:49:31.113Z,97.98
2023-01-07T07:51:58.175Z,97.37
2023-01-07T07:54:25.371Z,97.85
2023-01-07T07:56:52.485Z,98.56
2023-01-07T07:59:19.571Z,98.29
2023-01-07T08:01:46.797Z,98.17
2023-01-07T08:04:13.918Z,97.61
2023-01-07T08:06:41.134Z,97.87
2023-01-07T08:09:08.335Z,97.55
2023-01-07T08:11:35.459Z,97.31
2023-01-07T08:14:02.705Z,97.31
2023-01-07T08:16:30.363Z,97.52
2023-01-07T08:18:57.444Z,97.43
2023-01-07T08:21:24.545Z,97.67
2023-01-07T08:23:51.609Z,97.52
2023-01-07T08:26:18.716Z,97.16
2023-01-07T08:28:46.719Z,97.01
2023-01-07T08:31:14.115Z,96.73
2023-01-07T08:33:41.261Z,95.97
2023-01-07T08:36:22.124Z,96.86
2023-01-07T08:38:55.276Z,96.72
2023-01-07T08:41:24.385Z,96.58
2023-01-07T08:43:52.902Z,96.35
2023-01-07T08:46:20.100Z,96.24
2023-01-07T08:48:47.263Z,96.12
2023-01-07T08:51:14.602Z,95.18
2023-01-07T08:53:41.797Z,95.31
2023-01-07T08:56:09.284Z,95.37
2023-01-07T08:58:36.544Z,96.08
2023-01-07T09:01:06.833Z,95.56
2023-01-07T09:03:34.830Z,96.34
2023-01-07T09:06:01.927Z,94.74
2023-01-07T09:08:29.041Z,95.67
2023-01-07T09:10:56.273Z,95.76
2023-01-07T09:13:23.357Z,95.18
2023-01-07T09:15:50.475Z,93.83
2023-01-07T09:18:17.561Z,94.48
2023-01-07T09:20:45.089Z,95.04
2023-01-07T09:23:12.273Z,95.39
2023-01-07T09:25:39.342Z,95.00
2023-01-07T09:28:06.446Z,93.44
2023-01-07T09:30:33.727Z,94.11
2023-01-07T09:33:00.802Z,93.30
2023-01-07T09:35:27.877Z,93.34
2023-01-07T09:37:54.999Z,92.84
2023-01-07T09:40:38.965Z,93.10
2023-01-07T09:43:17.692Z,92.46
2023-01-07T09:45:53.454Z,92.98
2023-01-07T09:48:45.195Z,92.23
2023-01-07T09:51:20.245Z,93.10
2023-01-07T09:53:54.408Z,93.45
2023-01-07T09:56:28.222Z,92.76
2023-01-07T09:58:57.926Z,93.17
2023-01-07T10:01:54.366Z,93.46
2023-01-07T10:04:50.034Z,94.02
2023-01-07T10:07:44.684Z,93.26
2023-01-07T10:10:49.465Z,92.03
2023-01-07T10:14:11.201Z,94.40
2023-01-07T10:16:54.247Z,93.05
2023-01-07T10:19:42.520Z,92.74
2023-01-07T10:22:37.868Z,91.63
2023-01-07T10:25:21.064Z,92.11
2023-01-07T10:27:50.137Z,92.74
2023-01-07T10:30:23.448Z,92.57
2023-01-07T10:33:02.986Z,91.83
2023-01-07T10:35:34.027Z,91.91
2023-01-07T10:38:05.406Z,91.58
2023-01-07T10:40:53.982Z,92.04
2023-01-07T10:44:09.039Z,91.36
2023-01-07T10:47:19.063Z,90.84
2023-01-07T10:50:26.735Z,91.80
2023-01-07T10:53:08.028Z,91.69
2023-01-07T10:56:08.672Z,90.42
2023-01-07T10:58:43.938Z,92.45
2023-01-07T11:01:27.971Z,89.31
2023-01-07T11:03:58.523Z,91.14
2023-01-07T11:06:39.657Z,89.76
2023-01-07T11:09:13.859Z,89.60
2023-01-07T11:11:42.657Z,88.84
2023-01-07T11:14:30.900Z,88.17
2023-01-07T11:17:40.172Z,89.65
2023-01-07T11:20:08.273Z,87.57
2023-01-07T11:22:38.462Z,86.83
2023-01-07T11:25:29.849Z,87.08
2023-01-07T11:28:03.776Z,87.85
2023-01-07T11:30:34.143Z,86.35
2023-01-07T11:33:06.285Z,86.29
2023-01-07T11:35:33.853Z,86.76
2023-01-07T11:38:01.233Z,85.92
2023-01-07T11:40:32.222Z,86.68
2023-01-07T11:43:24.914Z,86.17
2023-01-07T11:46:19.438Z,87.94
2023-01-07T11:49:02.828Z,86.44
2023-01-07T11:51:40.605Z,84.62
2023-01-07T11:54:21.919Z,85.70
2023-01-07T11:56:49.178Z,86.75
2023-01-07T11:59:28.159Z,85.63
2023-01-07T12:01:59.274Z,86.44
2023-01-07T12:04:35.489Z,85.17
2023-01-07T12:07:07.782Z,84.24
2023-01-07T12:09:37.663Z,82.60
2023-01-07T12:12:39.240Z,85.71
2023-01-07T12:15:27.024Z,84.48
2023-01-07T12:18:09.464Z,84.76
2023-01-07T12:21:04.070Z,83.14
2023-01-07T12:24:06.140Z,84.76
2023-01-07T12:26:52.631Z,82.18
2023-01-07T12:29:42.214Z,83.83
2023-01-07T12:32:40.883Z,83.00
2023-01-07T12:35:26.175Z,85.41
2023-01-07T12:38:52.716Z,84.27
2023-01-07T12:41:37.519Z,84.02
2023-01-07T12:44:31.519Z,84.76
2023-01-07T12:47:30.833Z,83.00
2023-01-07T12:50:15.220Z,83.47
2023-01-07T12:52:58.010Z,84.42
2023-01-07T12:55:44.953Z,83.84
2023-01-07T12:58:54.967Z,83.56
2023-01-07T13:01:42.127Z,85.46
2023-01-07T13:04:34.445Z,84.12
2023-01-07T13:07:19.785Z,84.10
2023-01-07T13:10:00.874Z,84.76
2023-01-07T13:12:45.807Z,83.92
2023-01-07T13:15:40.278Z,84.11
2023-01-07T13:18:17.627Z,83.03
2023-01-07T13:21:16.994Z,83.14
2023-01-07T13:24:02.769Z,83.64
2023-01-07T13:27:09.469Z,84.20
2023-01-07T13:29:48.762Z,83.85
2023-01-07T13:33:00.458Z,84.40
2023-01-07T13:35:54.617Z,84.59
2023-01-07T13:38:55.410Z,85.12
2023-01-07T13:42:00.716Z,84.79
2023-01-07T13:44:46.408Z,83.89
2023-01-07T13:47:19.140Z,84.67
2023-01-07T13:49:57.321Z,86.50
2023-01-07T13:52:32.208Z,83.99
2023-01-07T13:55:05.630Z,86.28
2023-01-07T13:58:05.508Z,84.77
2023-01-07T14:01:07.894Z,84.13
2023-01-07T14:03:53.742Z,84.64
2023-01-07T14:06:20.842Z,85.10
2023-01-07T14:09:05.199Z,84.13
2023-01-07T14:11:50.125Z,84.83
2023-01-07T14:14:52.480Z,87.56
2023-01-07T14:18:06.122Z,84.45
2023-01-07T14:20:47.967Z,85.78
2023-01-07T14:23:34.224Z,85.30
2023-01-07T14:26:24.993Z,85.15
2023-01-07T14:29:19.865Z,86.41
2023-01-07T14:31:47.385Z,85.37
2023-01-07T14:34:27.257Z,84.59
2023-01-07T14:37:08.826Z,86.31
2023-01-07T14:39:46.849Z,85.11
2023-01-07T14:42:19.979Z,86.12
2023-01-07T14:44:48.995Z,84.30
2023-01-07T14:47:44.331Z,85.67
2023-01-07T14:50:46.213Z,85.27
2023-01-07T14:53:59.930Z,85.80
2023-01-07T14:57:15.437Z,86.39
2023-01-07T14:59:59.805Z,85.64
2023-01-07T15:03:32.390Z,87.39
2023-01-07T15:06:35.765Z,85.56
2023-01-07T15:09:39.165Z,86.91
2023-01-07T15:12:36.023Z,85.34
2023-01-07T15:15:30.218Z,87.05
2023-01-07T15:17:57.595Z,84.87
2023-01-07T15:20:49.297Z,85.01
2023-01-07T15:24:00.559Z,84.82
2023-01-07T15:27:02.061Z,83.71
2023-01-07T15:30:00.627Z,85.51
2023-01-07T15:32:42.402Z,85.77
2023-01-07T15:35:23.362Z,85.57
2023-01-07T15:37:51.953Z,85.34
2023-01-07T15:40:25.312Z,85.02
2023-01-07T15:42:56.830Z,86.65
2023-01-07T15:45:27.613Z,85.70
2023-01-07T15:48:07.975Z,86.27
2023-01-07T15:50:37.627Z,85.29
2023-01-07T15:53:10.728Z,84.37
2023-01-07T15:55:45.020Z,86.48
2023-01-07T15:58:20.280Z,85.51
2023-01-07T16:00:55.786Z,85.18
2023-01-07T16:03:22.976Z,84.20
2023-01-07T16:05:50.245Z,85.75
2023-01-07T16:08:21.924Z,85.78
2023-01-07T16:11:08.839Z,83.28
2023-01-07T16:13:37.159Z,84.85
2023-01-07T16:16:06.614Z,85.92
2023-01-07T16:18:33.925Z,85.94
2023-01-07T16:21:04.903Z,87.42
2023-01-07T16:23:37.435Z,87.75
2023-01-07T16:26:37.828Z,85.86
2023-01-07T16:29:16.266Z,86.00
2023-01-07T16:31:43.524Z,86.60
2023-01-07T16:34:25.865Z,87.24
2023-01-07T16:37:01.258Z,87.73
2023-01-07T16:39:35.665Z,86.56
2023-01-07T16:42:23.260Z,89.70
2023-01-07T16:44:53.405Z,89.41
2023-01-07T16:47:30.523Z,88.92
2023-01-07T16:50:04.717Z,89.64
2023-01-07T16:52:35.069Z,89.86
2023-01-07T16:55:02.184Z,90.39
2023-01-07T16:57:41.926Z,90.31
2023-01-07T17:00:27.222Z,90.51
2023-01-07T17:02:59.592Z,90.74
2023-01-07T17:05:30.671Z,91.99
2023-01-07T17:08:05.321Z,90.55
2023-01-07T17:10:43.127Z,92.08
2023-01-07T17:13:24.985Z,91.84
2023-01-07T17:15:52.175Z,92.38
2023-01-07T17:18:29.073Z,93.68
2023-01-07T17:21:00.822Z,93.70
2023-01-07T17:23:27.841Z,93.20
2023-01-07T17:26:01.041Z,94.14
2023-01-07T17:28:32.139Z,93.77
2023-01-07T17:30:59.884Z,94.13
2023-01-07T17:33:27.241Z,94.05
2023-01-07T17:35:54.798Z,94.31
2023-01-07T17:38:21.968Z,94.39
2023-01-07T17:40:49.523Z,93.21
2023-01-07T17:43:37.524Z,93.22
2023-01-07T17:46:11.840Z,93.90
2023-01-07T17:48:39.419Z,93.89
2023-01-07T17:51:07.219Z,93.27
2023-01-07T17:53:44.083Z,93.58
2023-01-07T17:56:11.285Z,93.71
2023-01-07T17:58:41.069Z,93.67
2023-01-07T18:01:11.931Z,93.99
2023-01-07T18:03:39.098Z,94.12
2023-01-07T18:06:25.087Z,93.18
2023-01-07T18:08:53.027Z,93.69
2023-01-07T18:11:42.615Z,94.35
2023-01-07T18:14:14.068Z,93.01
2023-01-07T18:16:41.476Z,93.70
2023-01-07T18:19:13.404Z,94.06
2023-01-07T18:21:41.139Z,94.19
2023-01-07T18:24:09.799Z,94.30
2023-01-07T18:26:36.853Z,94.40
2023-01-07T18:29:03.925Z,94.74
2023-01-07T18:31:32.175Z,94.20
2023-01-07T18:33:59.462Z,94.03
2023-01-07T18:36:26.559Z,94.01
2023-01-07T18:38:53.682Z,95.46
2023-01-07T18:41:20.864Z,93.93
2023-01-07T18:43:48.657Z,94.26
2023-01-07T18:46:17.614Z,94.39
2023-01-07T18:48:44.928Z,93.53
2023-01-07T18:51:12.781Z,93.60
2023-01-07T18:53:40.025Z,94.35
2023-01-07T18:56:11.518Z,93.97
2023-01-07T18:58:39.828Z,94.37
2023-01-07T19:01:08.673Z,93.99
2023-01-07T19:03:36.983Z,93.07
2023-01-07T19:06:09.429Z,94.09
2023-01-07T19:08:37.512Z,93.10
2023-01-07T19:11:10.590Z,93.54
2023-01-07T19:13:37.917Z,94.31
2023-01-07T19:16:10.842Z,93.18
2023-01-07T19:18:39.164Z,93.36
2023-01-07T19:21:10.321Z,92.79
2023-01-07T19:23:37.405Z,93.55
2023-01-07T19:26:08.325Z,93.15
2023-01-07T19:28:35.632Z,94.11
2023-01-07T19:31:06.860Z,92.96
2023-01-07T19:33:35.251Z,92.35
2023-01-07T19:36:07.637Z,93.08
2023-01-07T19:38:42.666Z,92.31
2023-01-07T19:41:12.004Z,93.50
2023-01-07T19:43:39.316Z,92.89
2023-01-07T19:46:08.260Z,93.31
2023-01-07T19:48:35.524Z,92.87
2023-01-07T19:51:05.209Z,92.79
2023-01-07T19:53:34.097Z,93.75
2023-01-07T19:56:07.838Z,93.94
2023-01-07T19:58:35.447Z,93.43
2023-01-07T20:01:09.720Z,93.20
2023-01-07T20:03:38.367Z,92.92
2023-01-07T20:06:27.414Z,93.44
2023-01-07T20:08:57.667Z,94.02
2023-01-07T20:11:25.573Z,93.47
2023-01-07T20:13:52.669Z,94.18
2023-01-07T20:16:23.376Z,93.89
2023-01-07T20:18:53.521Z,92.79
2023-01-07T20:21:25.419Z,92.74
2023-01-07T20:23:53.018Z,92.88
2023-01-07T20:26:32.654Z,93.40
2023-01-07T20:29:01.236Z,93.06
2023-01-07T20:31:31.118Z,92.88
2023-01-07T20:33:59.701Z,93.31
2023-01-07T20:36:32.429Z,92.05
2023-01-07T20:39:05.236Z,93.46
2023-01-07T20:41:35.007Z,93.26
2023-01-07T20:44:04.753Z,93.90
2023-01-07T20:46:34.752Z,94.76
2023-01-07T20:49:02.561Z,95.45
2023-01-07T20:51:29.840Z,94.83
2023-01-07T20:53:58.046Z,94.51
2023-01-07T20:56:31.540Z,95.37
2023-01-07T20:59:00.599Z,95.42
2023-01-07T21:01:28.333Z,95.53
2023-01-07T21:03:55.511Z,95.27
2023-01-07T21:06:23.293Z,95.17
2023-01-07T21:08:50.941Z,95.67
2023-01-07T21:11:23.357Z,96.45
2023-01-07T21:13:52.266Z,94.81
2023-01-07T21:16:19.548Z,95.00
2023-01-07T21:18:47.124Z,94.61
2023-01-07T21:21:21.083Z,94.86
2023-01-07T21:23:49.299Z,95.07
2023-01-07T21:26:18.148Z,95.15
2023-01-07T21:28:45.767Z,96.15
2023-01-07T21:31:15.718Z,94.72
2023-01-07T21:33:46.659Z,95.88
2023-01-07T21:36:17.497Z,95.53
2023-01-07T21:38:45.267Z,95.74
2023-01-07T21:41:17.424Z,95.08
2023-01-07T21:43:44.945Z,94.90
2023-01-07T21:46:13.280Z,94.57
2023-01-07T21:48:45.029Z,95.60
2023-01-07T21:51:19.740Z,95.61
2023-01-07T21:53:47.546Z,95.15
2023-01-07T21:56:17.812Z,95.27
2023-01-07T21:58:46.305Z,94.95
2023-01-07T22:01:13.986Z,94.55
2023-01-07T22:03:47.328Z,94.36
2023-01-07T22:06:35.686Z,94.44
2023-01-07T22:09:06.357Z,94.40
2023-01-07T22:11:35.620Z,94.82
2023-01-07T22:14:02.775Z,95.64
2023-01-07T22:16:32.241Z,94.50
2023-01-07T22:18:59.718Z,95.28
2023-01-07T22:21:26.839Z,94.55
2023-01-07T22:23:53.970Z,95.08
2023-01-07T22:26:22.272Z,94.74
2023-01-07T22:28:55.368Z,94.72
2023-01-07T22:31:36.319Z,94.13
2023-01-07T22:34:05.196Z,94.96
2023-01-07T22:36:38.653Z,94.64
2023-01-07T22:39:26.323Z,94.62
2023-01-07T22:41:57.578Z,94.81
2023-01-07T22:44:32.668Z,94.22
2023-01-07T22:47:00.514Z,94.62
2023-01-07T22:49:30.526Z,95.06
2023-01-07T22:51:57.896Z,95.11
2023-01-07T22:54:26.290Z,95.25
2023-01-07T22:56:54.051Z,95.58
2023-01-07T22:59:21.208Z,94.06
2023-01-07T23:01:48.274Z,93.85
2023-01-07T23:04:15.419Z,95.08
2023-01-07T23:06:42.510Z,94.04
2023-01-07T23:09:09.627Z,94.15
2023-01-07T23:11:48.607Z,94.36
2023-01-07T23:14:21.607Z,94.42
2023-01-07T23:16:50.252Z,94.70
2023-01-07T23:19:18.580Z,94.47
2023-01-07T23:21:48.828Z,95.02
2023-01-07T23:24:16.102Z,94.78
2023-01-07T23:26:43.701Z,94.80
2023-01-07T23:29:10.786Z,94.40
2023-01-07T23:31:38.408Z,94.10
2023-01-07T23:34:06.193Z,95.39
2023-01-07T23:36:34.747Z,93.63
2023-01-07T23:39:01.853Z,94.41
2023-01-07T23:41:28.977Z,95.06
2023-01-07T23:43:56.022Z,94.68
2023-01-07T23:46:23.211Z,96.01
2023-01-07T23:48:50.319Z,95.08
2023-01-07T23:51:20.677Z,95.53
2023-01-07T23:53:48.649Z,97.28
2023-01-07T23:56:19.658Z,96.43
2023-01-07T23:58:46.872Z,96.59
